DAAT/TMR METAR and TAF weather

Enter ICAO airport designator
Station Type Date Time Source
DAAT METAR 2019/06/17 13:30 UTC NOAA

DAAT 171330Z 12004KT 9999 FEW040CB SCT046TCU 38/M00 Q1020


Station Type Date Time Source
DAAT Decoded METAR 2019/06/17 13:30 UTC NOAA

Tamanrasset / Aguenna, Algeria (DAAT) 22-49N 005-28E
Jun 17, 2019 - 09:30 AM EDT / 2019.06.17 1330 UTC
Wind: from the ESE (120 degrees) at 5 MPH (4 KT):0
Visibility: greater than 7 mile(s):0
Sky conditions: partly cloudy
Weather: Cumulonimbus clouds, towering cumulus clouds observed
Temperature: 100 F (38 C)
Dew Point: 32 F (0 C)
Relative Humidity: 9%
Pressure (altimeter): 30.12 in. Hg (1020 hPa)
ob: DAAT 171330Z 12004KT 9999 FEW040CB SCT046TCU 38/M00 Q1020
cycle: 13

Station Type Date Time Source
DAAT TAF 2019/06/17 12:33 UTC NOAA

TAF DAAT 171100Z 1712/1812 06008KT 9999 SCT046 PROB40
TEMPO 1712/1720 SCT040TCU FEW046CB

Example: see airport list